PHNY

Details ICAO PHNY (LNY)
Name LANAI
Region USA (Hawaii)
Timezone Pacific/Honolulu (UTC-10.0)
Plans Departing 25
Arriving 72
Stats Elevation 1,308 ft / 399 m (AMSL)
Location 20.785642° -156.951465°
Runways 1
Magnetic Variation 9.488° E
Sunrise 2017-12-11 16:55:58 UTC / 2017-12-11 06:55:58 Local
Sunset 2017-12-12 03:49:28 UTC / 2017-12-11 17:49:28 Local
Advertisement - Login to hide

Runways

ID Width Length Bearing (true) Bearing (mag) Surface Threshold Offset Overrun Length
03 150 ft / 46 m 5,013 ft / 1,528 m 43.85° 34.36° Asphalt 0 ft / 0 m 0 ft / 0 m
21 150 ft / 46 m 5,013 ft / 1,528 m 223.85° 214.36° Asphalt 0 ft / 0 m 0 ft / 0 m

Approach Navaids

Runway Type Ident Frequency Range Bearing (true) Bearing (mag) Slope Elevation
03 Localiser ILNY 111.10 MHz 18 nm / 33 km 44.06° 34.57° - 1,308 ft / 399 m (AMSL)
03 Glidescope ILNY 111.10 MHz 10 nm / 19 km 43.85° 34.36° 3.00° 1,304 ft / 397 m (AMSL)

Map

Weather


0- 5 10 15 20 25 30 35+ Temperature / ° C

Clouds and Precipitation
Forecast for 2017-12-12 00:00 UTC. Updated 2 hours ago

Ground ~20,000 ft ~40,000 ft Winds

METAR

PHNY 112356Z AUTO 24010KT 10SM BKN017 23/18 A3000 RMK AO2 SLP143 T02280178 10244 20172 58013

TAF

PHNY 120101Z 1201/1224 24006KT P6SM BKN015 FM120400 VRB05KT P6SM BKN250

Frequencies

Recorded 118.37 MHz ASOS
Unicom 122.90 MHz CTAF
Warning: Do not use this data for real-world aviation or navigation. No guarantee of current accuracy is given.